Time;durP1;ratioP1;P1;durP2;ratioP2;P2;SDS_P1;SDS_P2;PMS_P1;PMS_P2;Temp;Humidity;BMP_temperature;BMP_pressure;BME280_temperature;BME280_humidity;BME280_pressure;Samples;Min_cycle;Max_cycle;Signal;HPM_P1;HPM_P2
2023/09/16 00:01:38;;;;;;;4.40;4.10;;;14.30;99.90;;;;;;4991771;28;20451;-64
2023/09/16 00:04:06;;;;;;;3.83;3.53;;;14.30;99.90;;;;;;4991508;28;20538;-64
2023/09/16 00:06:32;;;;;;;4.40;4.00;;;14.20;99.90;;;;;;4991833;28;20448;-65
2023/09/16 00:09:01;;;;;;;5.20;4.80;;;14.20;99.90;;;;;;4991735;28;20937;-65
2023/09/16 00:11:29;;;;;;;3.60;3.30;;;14.20;99.90;;;;;;4991739;28;20534;-65
2023/09/16 00:13:56;;;;;;;4.40;4.00;;;14.20;99.90;;;;;;4991453;28;20990;-65
2023/09/16 00:16:23;;;;;;;4.20;3.90;;;14.10;99.90;;;;;;4995217;28;20573;-65
2023/09/16 00:18:49;;;;;;;3.70;3.40;;;14.20;99.90;;;;;;4995776;28;20471;-65
2023/09/16 00:21:17;;;;;;;4.53;4.13;;;14.10;99.90;;;;;;4995761;28;20892;-65
2023/09/16 00:23:44;;;;;;;3.90;3.60;;;14.10;99.90;;;;;;4995332;28;20487;-65
2023/09/16 00:26:14;;;;;;;6.20;3.67;;;14.10;99.90;;;;;;4995553;28;20527;-64
2023/09/16 00:28:41;;;;;;;4.50;4.20;;;14.00;99.90;;;;;;4995600;28;20466;-65
2023/09/16 00:31:08;;;;;;;4.43;4.13;;;14.10;99.90;;;;;;4995658;28;20538;-65
2023/09/16 00:33:35;;;;;;;3.97;3.73;;;14.00;99.90;;;;;;4995229;28;20458;-65
2023/09/16 00:36:02;;;;;;;4.70;4.30;;;14.00;99.90;;;;;;4995343;28;20834;-65
2023/09/16 00:38:29;;;;;;;4.63;4.23;;;13.90;99.90;;;;;;4995283;28;20582;-65
2023/09/16 00:40:55;;;;;;;5.03;4.60;;;13.90;99.90;;;;;;4995263;28;20530;-65
2023/09/16 00:43:24;;;;;;;4.23;3.80;;;13.90;99.90;;;;;;4994805;28;20530;-64
2023/09/16 00:45:50;;;;;;;4.47;4.10;;;13.90;99.90;;;;;;4995321;28;20451;-64
2023/09/16 00:48:19;;;;;;;4.30;4.00;;;13.90;99.90;;;;;;4994855;28;20479;-65
2023/09/16 00:50:47;;;;;;;3.63;3.43;;;13.90;99.90;;;;;;4995108;28;20427;-64
2023/09/16 00:53:16;;;;;;;4.30;4.00;;;13.90;99.90;;;;;;4994708;28;20958;-64
2023/09/16 00:55:43;;;;;;;3.80;3.50;;;13.90;99.90;;;;;;4994888;28;20537;-65
2023/09/16 00:58:11;;;;;;;3.47;3.27;;;13.90;99.90;;;;;;4994744;28;20576;-64
2023/09/16 01:00:40;;;;;;;4.27;3.87;;;13.90;99.90;;;;;;4995042;28;20451;-65
2023/09/16 01:03:09;;;;;;;4.50;4.20;;;13.80;99.90;;;;;;4994685;28;20448;-64
2023/09/16 01:05:36;;;;;;;5.43;4.37;;;13.80;99.90;;;;;;4994943;28;20827;-65
2023/09/16 01:08:04;;;;;;;5.23;4.73;;;13.80;99.90;;;;;;4994692;28;20465;-65
2023/09/16 01:10:32;;;;;;;4.50;4.20;;;13.70;99.90;;;;;;4994575;28;20454;-65
2023/09/16 01:12:59;;;;;;;5.67;4.00;;;13.70;99.90;;;;;;4994296;28;20971;-63
2023/09/16 01:15:31;;;;;;;5.70;4.30;;;13.70;99.90;;;;;;4994736;28;20455;-64
2023/09/16 01:18:05;;;;;;;4.53;4.13;;;13.70;99.90;;;;;;4994583;28;20544;-64
2023/09/16 01:20:32;;;;;;;4.27;3.97;;;13.70;99.90;;;;;;4994515;28;20442;-65
2023/09/16 01:22:59;;;;;;;5.63;5.13;;;13.70;99.90;;;;;;4994037;28;20538;-65
2023/09/16 01:25:28;;;;;;;4.87;4.47;;;13.70;99.90;;;;;;4994413;28;20455;-65
2023/09/16 01:27:55;;;;;;;4.73;4.40;;;13.70;99.90;;;;;;4993751;28;20466;-65
2023/09/16 01:30:25;;;;;;;4.47;4.17;;;13.70;99.90;;;;;;4994273;28;20538;-65
2023/09/16 01:32:56;;;;;;;6.97;3.60;;;13.70;99.90;;;;;;4993950;28;20533;-65
2023/09/16 01:35:26;;;;;;;4.47;4.17;;;13.70;99.90;;;;;;4994197;28;20530;-65
2023/09/16 01:37:54;;;;;;;4.40;4.10;;;13.60;99.90;;;;;;4994268;28;20589;-65
2023/09/16 01:40:24;;;;;;;4.30;3.87;;;13.60;99.90;;;;;;4994253;28;20457;-65
2023/09/16 01:42:53;;;;;;;5.03;4.63;;;13.60;99.90;;;;;;4993762;28;20452;-65
2023/09/16 01:45:19;;;;;;;5.40;4.90;;;13.50;99.90;;;;;;4994014;28;20451;-64
2023/09/16 01:47:49;;;;;;;5.27;4.30;;;13.60;99.90;;;;;;4993862;28;20477;-65
2023/09/16 01:50:16;;;;;;;4.63;4.23;;;13.50;99.90;;;;;;4994136;28;20455;-64
2023/09/16 01:52:43;;;;;;;5.30;4.10;;;13.50;99.90;;;;;;4993550;28;20451;-64
2023/09/16 01:55:10;;;;;;;5.00;4.70;;;13.50;99.90;;;;;;4994039;28;20455;-65
2023/09/16 01:57:37;;;;;;;4.50;4.20;;;13.50;99.90;;;;;;4993714;28;20491;-65
2023/09/16 02:00:07;;;;;;;4.50;4.20;;;13.50;99.90;;;;;;4993744;28;20443;-65
2023/09/16 02:02:33;;;;;;;5.30;4.40;;;13.40;99.90;;;;;;4993379;28;20454;-65
2023/09/16 02:05:01;;;;;;;3.93;3.63;;;13.40;99.90;;;;;;4993852;28;20460;-65
2023/09/16 02:07:28;;;;;;;4.30;4.00;;;13.40;99.90;;;;;;4993654;28;20463;-65
2023/09/16 02:09:54;;;;;;;4.87;4.47;;;13.40;99.90;;;;;;4993553;28;20451;-66
2023/09/16 02:12:21;;;;;;;4.80;4.50;;;13.40;99.90;;;;;;4993322;28;20450;-66
2023/09/16 02:14:51;;;;;;;5.60;4.70;;;13.40;99.90;;;;;;4993547;28;20450;-65
2023/09/16 02:17:19;;;;;;;3.70;3.50;;;13.40;99.90;;;;;;4993255;28;20933;-65
2023/09/16 02:19:46;;;;;;;4.93;4.17;;;13.40;99.90;;;;;;4993635;28;20887;-66
2023/09/16 02:22:13;;;;;;;3.60;3.40;;;13.30;99.90;;;;;;4993216;28;20447;-64
2023/09/16 02:24:39;;;;;;;5.20;4.77;;;13.30;99.90;;;;;;4993308;28;20713;-66
2023/09/16 02:27:06;;;;;;;4.67;4.00;;;13.30;99.90;;;;;;4993203;28;20477;-65
2023/09/16 02:29:34;;;;;;;5.30;4.90;;;13.30;99.90;;;;;;4993134;28;20442;-66
2023/09/16 02:32:01;;;;;;;5.03;4.63;;;13.20;99.90;;;;;;4993358;28;20442;-65
2023/09/16 02:34:31;;;;;;;5.30;4.90;;;13.20;99.90;;;;;;4992895;28;20442;-65
2023/09/16 02:36:59;;;;;;;4.30;4.00;;;13.20;99.90;;;;;;4993097;28;20490;-65
2023/09/16 02:39:26;;;;;;;4.30;4.00;;;13.20;99.90;;;;;;4992039;28;20454;-65
2023/09/16 02:41:53;;;;;;;4.83;4.50;;;13.20;99.90;;;;;;4992883;28;20447;-65
2023/09/16 02:44:20;;;;;;;4.10;3.70;;;13.20;99.90;;;;;;4992562;28;20945;-65
2023/09/16 02:46:46;;;;;;;6.67;4.90;;;13.20;99.90;;;;;;4992813;28;20541;-65
2023/09/16 02:49:13;;;;;;;4.80;4.40;;;13.20;99.90;;;;;;4992941;28;20831;-65
2023/09/16 02:51:42;;;;;;;4.80;4.40;;;13.10;99.90;;;;;;4992761;28;20447;-65
2023/09/16 02:54:08;;;;;;;4.50;4.10;;;13.20;99.90;;;;;;4992433;28;20447;-65
2023/09/16 02:56:35;;;;;;;4.47;4.17;;;13.10;99.90;;;;;;4992512;28;20447;-65
2023/09/16 02:59:02;;;;;;;4.57;4.17;;;13.10;99.90;;;;;;4992731;28;20446;-65
2023/09/16 03:01:29;;;;;;;4.63;4.20;;;13.10;99.90;;;;;;4992551;28;20454;-65
2023/09/16 03:03:56;;;;;;;8.33;6.30;;;13.10;99.90;;;;;;4992189;28;20452;-65
2023/09/16 03:06:23;;;;;;;4.47;4.17;;;13.10;99.90;;;;;;4992466;28;20447;-65
2023/09/16 03:08:52;;;;;;;4.57;4.27;;;13.10;99.90;;;;;;4992246;28;20469;-65
2023/09/16 03:11:19;;;;;;;4.07;3.77;;;13.10;99.90;;;;;;4992367;28;20542;-65
2023/09/16 03:13:46;;;;;;;3.90;3.60;;;13.10;99.90;;;;;;4992335;28;20450;-66
2023/09/16 03:16:16;;;;;;;4.17;3.87;;;13.00;99.90;;;;;;4992376;28;20453;-65
2023/09/16 03:18:45;;;;;;;4.80;4.40;;;13.00;99.90;;;;;;4992396;28;20498;-64
2023/09/16 03:21:12;;;;;;;4.40;4.00;;;13.00;99.90;;;;;;4991333;28;20450;-65
2023/09/16 03:23:39;;;;;;;5.03;4.63;;;13.00;99.90;;;;;;4992134;28;20451;-65
2023/09/16 03:26:08;;;;;;;4.90;4.50;;;13.00;99.90;;;;;;4992365;28;20542;-65
2023/09/16 03:28:34;;;;;;;4.90;4.60;;;13.00;99.90;;;;;;4992226;28;20533;-65
2023/09/16 03:31:01;;;;;;;5.30;4.83;;;12.90;99.90;;;;;;4992116;28;20537;-65
2023/09/16 03:33:28;;;;;;;4.87;4.47;;;12.90;99.90;;;;;;4991882;28;20457;-65
2023/09/16 03:35:55;;;;;;;4.87;4.47;;;12.90;99.90;;;;;;4992046;28;20997;-65
2023/09/16 03:38:24;;;;;;;5.03;4.63;;;12.90;99.90;;;;;;4992103;28;20496;-65
2023/09/16 03:40:51;;;;;;;5.27;4.57;;;12.90;99.90;;;;;;4992053;28;20446;-65
2023/09/16 03:43:19;;;;;;;5.23;4.83;;;12.90;99.90;;;;;;4991573;28;20458;-65
2023/09/16 03:45:46;;;;;;;4.60;4.30;;;12.80;99.90;;;;;;4992218;28;20874;-65
2023/09/16 03:48:12;;;;;;;6.13;4.80;;;12.80;99.90;;;;;;4991828;28;20471;-65
2023/09/16 03:50:40;;;;;;;4.67;4.27;;;12.80;99.90;;;;;;4991684;28;20835;-65
2023/09/16 03:53:07;;;;;;;5.03;4.63;;;12.80;99.90;;;;;;4991726;28;20876;-65
2023/09/16 03:55:35;;;;;;;6.80;4.50;;;12.80;99.90;;;;;;4991876;28;20447;-65
2023/09/16 03:58:04;;;;;;;4.40;4.10;;;12.80;99.90;;;;;;4991627;28;20889;-65
2023/09/16 04:00:32;;;;;;;4.73;4.33;;;12.80;99.90;;;;;;4991778;28;20546;-66
2023/09/16 04:02:59;;;;;;;5.77;5.23;;;12.70;99.90;;;;;;4991668;28;20449;-66
2023/09/16 04:05:27;;;;;;;5.80;5.30;;;12.70;99.90;;;;;;4991731;28;20949;-66
2023/09/16 04:07:54;;;;;;;5.27;4.87;;;12.70;99.90;;;;;;4991733;28;20467;-66
2023/09/16 04:10:20;;;;;;;6.13;4.73;;;12.70;99.90;;;;;;4991647;28;20454;-66
2023/09/16 04:12:47;;;;;;;5.20;4.80;;;12.70;99.90;;;;;;4991633;28;20838;-66
2023/09/16 04:15:15;;;;;;;4.40;4.10;;;12.70;99.90;;;;;;4991861;28;20450;-66
2023/09/16 04:17:43;;;;;;;5.87;5.37;;;12.70;99.90;;;;;;4991532;28;21004;-66
2023/09/16 04:20:11;;;;;;;5.23;4.83;;;12.70;99.90;;;;;;4991678;28;20543;-66
2023/09/16 04:22:37;;;;;;;4.40;4.10;;;12.60;99.90;;;;;;4991319;28;21001;-66
2023/09/16 04:25:05;;;;;;;4.40;4.10;;;12.60;99.90;;;;;;4991565;28;20453;-66
2023/09/16 04:27:32;;;;;;;4.63;4.30;;;12.60;99.90;;;;;;4991776;28;20458;-66
2023/09/16 04:29:58;;;;;;;5.20;4.83;;;12.60;99.90;;;;;;4991590;28;20439;-66
2023/09/16 04:32:25;;;;;;;5.00;4.60;;;12.60;99.90;;;;;;4991434;28;20447;-66
2023/09/16 04:34:56;;;;;;;5.40;4.97;;;12.60;99.90;;;;;;4991479;28;20545;-66
2023/09/16 04:37:23;;;;;;;4.83;4.53;;;12.60;99.90;;;;;;4991421;28;20473;-66
2023/09/16 04:39:50;;;;;;;4.20;3.90;;;12.60;99.90;;;;;;4991711;28;20469;-66
2023/09/16 04:42:16;;;;;;;5.07;4.67;;;12.60;99.90;;;;;;4991416;28;20447;-66
2023/09/16 04:44:44;;;;;;;5.10;4.70;;;12.50;99.90;;;;;;4991567;28;20537;-66
2023/09/16 04:47:11;;;;;;;4.77;4.37;;;12.50;99.90;;;;;;4991238;28;21000;-66
2023/09/16 04:49:38;;;;;;;4.83;4.43;;;12.50;99.90;;;;;;4991451;28;20443;-66
2023/09/16 04:52:06;;;;;;;4.63;4.23;;;12.50;99.90;;;;;;4991162;28;20450;-66
2023/09/16 04:54:33;;;;;;;5.87;5.40;;;12.50;99.90;;;;;;4991268;28;20450;-66
2023/09/16 04:57:00;;;;;;;5.57;5.10;;;12.50;99.90;;;;;;4991435;28;20463;-66
2023/09/16 04:59:26;;;;;;;5.53;5.03;;;12.50;99.90;;;;;;4991232;28;20549;-66
2023/09/16 05:01:53;;;;;;;4.83;4.53;;;12.50;99.90;;;;;;4992468;28;20453;-66
2023/09/16 05:04:20;;;;;;;4.20;3.90;;;12.50;99.90;;;;;;4994520;28;21000;-66
2023/09/16 05:06:47;;;;;;;5.73;5.13;;;12.40;99.90;;;;;;4994641;28;20553;-66
2023/09/16 05:09:15;;;;;;;5.60;5.20;;;12.40;99.90;;;;;;4994703;28;20979;-66
2023/09/16 05:11:43;;;;;;;5.03;4.73;;;12.40;99.90;;;;;;4994825;28;20453;-66
2023/09/16 05:14:10;;;;;;;5.83;4.50;;;12.40;99.90;;;;;;4994466;28;20478;-66
2023/09/16 05:16:37;;;;;;;5.13;4.70;;;12.50;99.90;;;;;;4994609;28;20542;-66
2023/09/16 05:19:04;;;;;;;4.90;4.50;;;12.40;99.90;;;;;;4994446;28;20516;-66
2023/09/16 05:21:31;;;;;;;5.60;5.10;;;12.50;99.90;;;;;;4994658;28;20784;-66
2023/09/16 05:23:57;;;;;;;5.30;4.90;;;12.50;99.90;;;;;;4994378;28;20459;-66
2023/09/16 05:26:26;;;;;;;5.30;4.83;;;12.50;99.90;;;;;;4994336;28;20447;-66
2023/09/16 05:28:53;;;;;;;4.60;4.20;;;12.50;99.90;;;;;;4994382;28;20546;-66
2023/09/16 05:31:20;;;;;;;5.73;5.33;;;12.50;99.90;;;;;;4994416;28;20982;-66
2023/09/16 05:33:47;;;;;;;5.90;5.23;;;12.50;99.90;;;;;;4993922;28;20834;-66
2023/09/16 05:36:14;;;;;;;4.97;4.57;;;12.50;99.90;;;;;;4994499;28;20455;-66
2023/09/16 05:38:41;;;;;;;4.97;4.20;;;12.50;99.90;;;;;;4994021;28;20497;-66
2023/09/16 05:41:07;;;;;;;5.30;4.90;;;12.50;99.90;;;;;;4994316;28;20464;-66
2023/09/16 05:43:35;;;;;;;4.93;4.57;;;12.50;99.90;;;;;;4993833;28;20457;-66
2023/09/16 05:46:02;;;;;;;5.57;5.17;;;12.50;99.90;;;;;;4994182;28;20450;-66
2023/09/16 05:48:29;;;;;;;5.60;5.10;;;12.60;99.90;;;;;;4993649;28;20478;-66
2023/09/16 05:50:59;;;;;;;6.17;5.67;;;12.60;99.90;;;;;;4994209;28;20550;-66
2023/09/16 05:53:27;;;;;;;5.17;4.77;;;12.60;99.90;;;;;;4993807;28;20542;-66
2023/09/16 05:55:54;;;;;;;5.20;4.80;;;12.60;99.90;;;;;;4993971;28;20472;-66
2023/09/16 05:58:21;;;;;;;5.80;5.27;;;12.60;99.90;;;;;;4993742;28;20868;-66
2023/09/16 06:00:55;;;;;;;5.63;5.13;;;12.60;99.90;;;;;;4993748;28;20449;-66
2023/09/16 06:03:22;;;;;;;6.53;4.67;;;12.60;99.90;;;;;;4993587;28;20513;-66
2023/09/16 06:05:49;;;;;;;5.90;4.73;;;12.70;99.90;;;;;;4993816;28;20448;-66
2023/09/16 06:08:16;;;;;;;5.13;4.37;;;12.70;99.90;;;;;;4993551;28;20470;-66
2023/09/16 06:10:43;;;;;;;5.90;5.40;;;12.70;99.90;;;;;;4993690;28;20453;-66
2023/09/16 06:13:09;;;;;;;5.07;4.67;;;12.80;99.90;;;;;;5029901;23;20497;-64
2023/09/16 06:15:36;;;;;;;5.77;5.10;;;12.80;99.90;;;;;;5013100;28;20528;-64
2023/09/16 06:18:06;;;;;;;4.90;4.50;;;12.80;99.90;;;;;;5013060;28;21353;-64
2023/09/16 06:20:33;;;;;;;5.77;5.27;;;12.90;99.90;;;;;;5013234;28;20520;-64
2023/09/16 06:23:03;;;;;;;4.80;4.40;;;12.90;99.90;;;;;;5012720;28;20549;-64
2023/09/16 06:25:30;;;;;;;6.00;5.50;;;12.90;99.90;;;;;;5012985;28;20838;-64
2023/09/16 06:27:59;;;;;;;8.37;5.70;;;13.00;99.90;;;;;;5012796;28;20427;-64
2023/09/16 06:30:26;;;;;;;5.27;4.87;;;13.00;99.90;;;;;;5012797;28;20512;-64
2023/09/16 06:32:53;;;;;;;5.90;5.40;;;13.10;99.90;;;;;;5012555;28;20461;-64
2023/09/16 06:35:22;;;;;;;6.80;6.17;;;13.10;99.90;;;;;;5012527;28;20825;-64
2023/09/16 06:37:49;;;;;;;5.23;4.80;;;13.10;99.90;;;;;;5012715;28;20446;-64
2023/09/16 06:40:17;;;;;;;5.50;5.00;;;13.20;99.90;;;;;;5012895;28;20641;-64
2023/09/16 06:42:44;;;;;;;5.53;5.03;;;13.20;99.90;;;;;;5012183;28;20481;-64
2023/09/16 06:45:12;;;;;;;5.30;4.90;;;13.20;99.90;;;;;;5012723;28;20546;-64
2023/09/16 06:47:38;;;;;;;5.60;5.10;;;13.30;99.90;;;;;;5012496;28;20457;-64
2023/09/16 06:50:06;;;;;;;5.37;4.97;;;13.30;99.90;;;;;;5012612;28;20454;-64
2023/09/16 06:52:35;;;;;;;5.73;5.13;;;13.40;99.90;;;;;;5012226;28;20911;-64
2023/09/16 06:55:01;;;;;;;5.10;4.70;;;13.40;99.90;;;;;;5012413;28;20499;-64
2023/09/16 06:57:28;;;;;;;5.23;4.90;;;13.50;99.90;;;;;;5012602;28;20457;-64
2023/09/16 06:59:55;;;;;;;6.13;5.53;;;13.60;99.90;;;;;;5012402;28;20864;-64
2023/09/16 07:02:22;;;;;;;5.93;5.43;;;13.70;99.90;;;;;;5012056;28;21043;-64
2023/09/16 07:04:50;;;;;;;5.40;4.87;;;13.80;99.90;;;;;;5012260;28;20940;-64
2023/09/16 07:07:17;;;;;;;5.43;4.90;;;13.90;99.90;;;;;;5012121;28;20489;-64
2023/09/16 07:09:45;;;;;;;5.30;4.90;;;14.00;99.90;;;;;;5012051;28;20949;-64
2023/09/16 07:12:12;;;;;;;5.20;4.80;;;14.20;99.90;;;;;;5011848;28;20482;-64
2023/09/16 07:14:39;;;;;;;5.40;5.00;;;14.40;99.90;;;;;;5011993;28;20956;-64
2023/09/16 07:17:07;;;;;;;5.93;5.33;;;14.60;99.90;;;;;;5012108;28;20532;-64
2023/09/16 07:19:34;;;;;;;5.53;5.13;;;14.80;99.90;;;;;;5012047;28;20500;-64
2023/09/16 07:22:01;;;;;;;5.70;5.30;;;15.00;99.90;;;;;;5011887;28;20465;-64
2023/09/16 07:24:27;;;;;;;5.23;4.83;;;15.10;99.90;;;;;;5011049;28;20942;-64
2023/09/16 07:26:56;;;;;;;5.67;5.17;;;15.40;99.90;;;;;;5012158;28;20528;-64
2023/09/16 07:29:23;;;;;;;4.93;4.63;;;15.50;99.90;;;;;;5011947;28;20858;-64
2023/09/16 07:31:50;;;;;;;5.77;5.27;;;15.70;99.90;;;;;;5011680;28;20550;-64
2023/09/16 07:34:19;;;;;;;7.17;6.60;;;15.90;99.90;;;;;;5011557;28;20453;-64
2023/09/16 07:36:46;;;;;;;6.70;5.30;;;16.10;99.90;;;;;;5011595;28;20458;-64
2023/09/16 07:39:13;;;;;;;5.37;4.70;;;16.30;99.90;;;;;;5011786;28;20598;-64
2023/09/16 07:41:39;;;;;;;6.33;5.70;;;16.40;99.90;;;;;;5011777;28;20473;-64
2023/09/16 07:44:08;;;;;;;5.30;4.90;;;16.60;99.90;;;;;;5011484;28;20452;-64
2023/09/16 07:46:35;;;;;;;6.07;5.47;;;16.70;99.90;;;;;;5011689;28;20543;-64
2023/09/16 07:49:02;;;;;;;5.27;4.87;;;16.90;99.90;;;;;;5011651;28;20501;-64
2023/09/16 07:51:29;;;;;;;5.57;5.17;;;17.10;99.90;;;;;;5011387;28;20886;-64
2023/09/16 07:53:56;;;;;;;5.50;5.17;;;17.20;99.90;;;;;;5011219;28;21019;-64
2023/09/16 07:56:22;;;;;;;5.90;5.33;;;17.30;99.90;;;;;;5011623;28;20461;-64
2023/09/16 07:58:49;;;;;;;5.77;5.37;;;17.50;99.90;;;;;;5011546;28;20481;-64
2023/09/16 08:01:17;;;;;;;6.37;5.93;;;17.60;99.90;;;;;;5011391;28;20453;-64
2023/09/16 08:03:44;;;;;;;5.77;5.27;;;17.70;99.90;;;;;;5011128;28;20450;-64
2023/09/16 08:06:12;;;;;;;6.03;5.53;;;17.90;99.90;;;;;;5011406;28;20508;-64
2023/09/16 08:08:39;;;;;;;4.90;4.37;;;18.00;99.90;;;;;;5011629;28;20444;-64
2023/09/16 08:11:06;;;;;;;6.07;5.17;;;18.10;99.90;;;;;;5011480;28;20456;-65
2023/09/16 08:13:33;;;;;;;7.80;5.50;;;18.20;99.90;;;;;;5010886;28;20516;-64
2023/09/16 08:16:00;;;;;;;6.33;5.80;;;18.30;99.90;;;;;;5011397;28;20536;-64
2023/09/16 08:18:28;;;;;;;5.63;5.10;;;18.50;99.90;;;;;;5011134;28;20505;-64
2023/09/16 08:20:55;;;;;;;5.90;5.40;;;18.60;99.90;;;;;;5011320;28;20443;-64
2023/09/16 08:23:22;;;;;;;5.47;4.93;;;18.80;99.90;;;;;;5008751;28;21040;-64
2023/09/16 08:25:49;;;;;;;5.57;5.07;;;18.90;99.90;;;;;;5010951;28;20810;-64
2023/09/16 08:28:16;;;;;;;5.30;4.90;;;19.10;99.90;;;;;;5010678;28;20448;-64
2023/09/16 08:30:42;;;;;;;5.60;5.20;;;19.20;99.90;;;;;;5010779;28;20453;-64
2023/09/16 08:33:10;;;;;;;6.13;5.70;;;19.40;99.90;;;;;;5010182;28;20480;-64
2023/09/16 08:35:38;;;;;;;4.90;4.50;;;19.50;99.90;;;;;;5005038;28;20446;-64
2023/09/16 08:38:07;;;;;;;5.77;5.37;;;19.60;99.90;;;;;;4993704;28;20447;-64
2023/09/16 08:40:35;;;;;;;12.20;6.33;;;19.70;99.90;;;;;;4994921;28;20487;-64
2023/09/16 08:43:11;;;;;;;7.47;6.97;;;19.80;99.90;;;;;;4993882;28;20475;-64
2023/09/16 08:45:44;;;;;;;5.60;5.20;;;19.90;99.90;;;;;;4994574;28;20442;-64
2023/09/16 08:48:15;;;;;;;5.83;5.37;;;20.10;99.90;;;;;;4995037;28;20533;-64
2023/09/16 08:50:45;;;;;;;6.23;5.73;;;20.20;99.90;;;;;;4994855;28;20819;-65
2023/09/16 08:53:13;;;;;;;5.90;5.27;;;20.30;99.90;;;;;;4994274;28;20918;-64
2023/09/16 08:55:43;;;;;;;5.37;4.97;;;20.40;99.90;;;;;;4994717;28;20451;-64
2023/09/16 08:58:14;;;;;;;5.70;5.30;;;20.50;99.90;;;;;;4993929;28;20498;-65
2023/09/16 09:00:41;;;;;;;6.77;6.23;;;20.70;99.90;;;;;;4994201;28;20497;-65
2023/09/16 09:03:08;;;;;;;7.03;6.43;;;20.80;99.90;;;;;;4994225;28;20553;-65
2023/09/16 09:05:36;;;;;;;5.77;5.27;;;21.00;99.90;;;;;;4994665;28;20802;-65
2023/09/16 09:08:08;;;;;;;6.27;5.77;;;21.10;99.90;;;;;;4994628;28;20833;-64
2023/09/16 09:10:36;;;;;;;7.10;6.50;;;21.20;99.90;;;;;;4994402;28;20451;-65
2023/09/16 09:13:04;;;;;;;6.30;5.83;;;21.30;99.90;;;;;;4993839;28;20856;-64
2023/09/16 09:15:33;;;;;;;5.23;4.83;;;21.40;99.90;;;;;;4994403;28;20545;-64
2023/09/16 09:18:00;;;;;;;5.83;5.43;;;21.50;99.90;;;;;;4994166;28;20464;-66
2023/09/16 09:20:28;;;;;;;6.07;5.67;;;21.50;99.90;;;;;;4994161;28;20505;-65
2023/09/16 09:22:56;;;;;;;6.57;5.97;;;21.70;99.90;;;;;;4993622;28;20479;-65
2023/09/16 09:25:26;;;;;;;6.10;5.50;;;21.80;99.90;;;;;;4994049;28;20545;-65
2023/09/16 09:27:55;;;;;;;5.97;5.57;;;21.90;99.90;;;;;;4994128;28;20540;-65
2023/09/16 09:30:26;;;;;;;5.00;4.60;;;21.90;99.90;;;;;;4994179;28;20563;-64
2023/09/16 09:32:55;;;;;;;5.17;4.77;;;22.00;99.90;;;;;;4993498;28;20478;-65
2023/09/16 09:35:22;;;;;;;5.40;5.03;;;22.10;99.90;;;;;;4993206;28;20472;-65
2023/09/16 09:37:50;;;;;;;5.63;5.20;;;22.20;99.90;;;;;;4993401;28;20540;-65
2023/09/16 09:40:17;;;;;;;5.90;5.50;;;22.20;99.90;;;;;;4993694;28;20589;-65
2023/09/16 09:42:46;;;;;;;5.50;5.00;;;22.30;99.90;;;;;;4993602;28;20473;-65
2023/09/16 09:45:14;;;;;;;5.93;5.43;;;22.40;99.90;;;;;;4993668;28;20484;-65
2023/09/16 09:47:42;;;;;;;6.97;6.37;;;22.40;99.90;;;;;;4993228;28;20528;-65
2023/09/16 09:50:13;;;;;;;7.07;6.37;;;22.50;99.90;;;;;;4993552;28;20445;-65
2023/09/16 09:52:45;;;;;;;5.77;5.43;;;22.60;99.90;;;;;;4993465;28;20463;-65
2023/09/16 09:55:12;;;;;;;6.30;5.90;;;22.70;99.90;;;;;;4993618;28;20447;-65
2023/09/16 09:57:39;;;;;;;7.17;6.57;;;22.80;99.90;;;;;;4993646;28;20901;-64
2023/09/16 10:00:08;;;;;;;6.57;5.90;;;22.80;99.90;;;;;;4993528;28;20494;-65
2023/09/16 10:02:36;;;;;;;6.43;5.80;;;22.90;99.90;;;;;;4992966;28;20477;-65
2023/09/16 10:05:05;;;;;;;6.20;5.70;;;23.00;99.90;;;;;;4993629;28;20969;-65
2023/09/16 10:07:32;;;;;;;5.77;5.37;;;23.20;99.90;;;;;;4994247;28;20461;-65
2023/09/16 10:09:59;;;;;;;5.47;5.03;;;23.30;99.90;;;;;;5013077;28;20535;-65
2023/09/16 10:12:27;;;;;;;6.80;6.30;;;23.50;99.90;;;;;;5012393;28;20490;-65
2023/09/16 10:14:54;;;;;;;5.30;4.90;;;23.60;99.90;;;;;;5012724;28;20474;-65
2023/09/16 10:17:23;;;;;;;5.70;5.23;;;23.70;99.90;;;;;;5012658;28;20450;-65
2023/09/16 10:19:50;;;;;;;5.73;5.23;;;23.80;99.90;;;;;;5012823;28;20860;-65
2023/09/16 10:22:17;;;;;;;7.33;5.60;;;23.90;99.10;;;;;;5012430;28;20550;-65
2023/09/16 10:24:45;;;;;;;6.70;5.30;;;23.90;99.10;;;;;;5012639;28;20529;-65
2023/09/16 10:27:18;;;;;;;5.80;5.40;;;24.00;98.90;;;;;;5012576;28;20456;-65
2023/09/16 10:29:47;;;;;;;6.47;4.97;;;24.00;99.10;;;;;;5012423;28;20450;-65
2023/09/16 10:32:15;;;;;;;6.17;5.70;;;24.10;99.20;;;;;;5012461;28;20557;-65
2023/09/16 10:34:45;;;;;;;6.80;6.30;;;24.30;99.20;;;;;;5011880;28;20450;-65
2023/09/16 10:37:16;;;;;;;5.20;4.90;;;24.30;98.50;;;;;;5005523;28;20452;-65
2023/09/16 10:39:46;;;;;;;5.60;5.20;;;24.30;97.60;;;;;;4996154;28;20485;-65
2023/09/16 10:42:16;;;;;;;6.07;5.60;;;24.40;98.50;;;;;;5003367;28;20820;-65
2023/09/16 10:44:43;;;;;;;5.80;5.30;;;24.50;97.80;;;;;;5004215;28;20512;-65
2023/09/16 10:47:10;;;;;;;6.70;6.10;;;24.60;98.00;;;;;;5011669;28;20447;-65
2023/09/16 10:49:37;;;;;;;5.50;5.13;;;24.70;98.30;;;;;;4995406;28;20522;-65
2023/09/16 10:52:10;;;;;;;6.07;5.47;;;24.70;97.10;;;;;;5004752;28;20466;-65
2023/09/16 10:54:44;;;;;;;5.50;5.10;;;24.80;97.40;;;;;;5002950;28;20444;-65
2023/09/16 10:57:17;;;;;;;5.67;5.17;;;24.90;97.20;;;;;;5011395;28;21004;-65
2023/09/16 10:59:45;;;;;;;6.83;6.27;;;25.00;97.60;;;;;;4995081;28;21007;-65
2023/09/16 11:02:19;;;;;;;5.40;5.00;;;25.10;97.90;;;;;;5003577;28;20857;-65
2023/09/16 11:04:46;;;;;;;5.90;5.50;;;25.20;96.60;;;;;;5004254;28;20535;-65
2023/09/16 11:07:14;;;;;;;6.60;6.10;;;25.20;96.60;;;;;;5011227;28;20490;-65
2023/09/16 11:09:43;;;;;;;5.23;4.80;;;25.30;96.20;;;;;;5007305;28;20517;-65
2023/09/16 11:12:10;;;;;;;5.67;5.27;;;25.40;96.40;;;;;;4991461;28;20515;-66
2023/09/16 11:14:38;;;;;;;5.60;5.10;;;25.50;96.60;;;;;;5002759;28;21002;-65
2023/09/16 11:17:13;;;;;;;5.00;4.70;;;25.60;95.60;;;;;;4996382;28;20533;-65
2023/09/16 11:19:39;;;;;;;5.50;5.10;;;25.70;95.90;;;;;;4994708;28;20486;-65
2023/09/16 11:22:06;;;;;;;4.80;4.43;;;25.70;95.90;;;;;;5003627;28;20987;-65
2023/09/16 11:24:36;;;;;;;5.73;5.20;;;25.80;95.70;;;;;;5002155;28;20799;-65
2023/09/16 11:27:04;;;;;;;5.20;4.90;;;25.90;94.80;;;;;;5010840;28;20447;-65
2023/09/16 11:29:32;;;;;;;5.70;5.23;;;26.00;94.90;;;;;;4993988;28;20527;-65
2023/09/16 11:31:59;;;;;;;5.57;5.17;;;26.10;95.00;;;;;;5003869;28;20461;-65
2023/09/16 11:34:28;;;;;;;4.97;4.60;;;26.20;95.10;;;;;;4999602;28;20563;-65
2023/09/16 11:36:57;;;;;;;5.87;5.37;;;26.30;95.20;;;;;;5011069;28;20536;-65
2023/09/16 11:39:35;;;;;;;4.60;4.30;;;26.40;94.70;;;;;;4994428;28;20533;-65
2023/09/16 11:42:02;;;;;;;5.10;4.80;;;26.50;94.20;;;;;;5004395;28;20496;-65
2023/09/16 11:44:30;;;;;;;4.90;4.60;;;26.70;94.40;;;;;;5001189;28;20450;-65
2023/09/16 11:46:59;;;;;;;4.97;4.67;;;26.80;94.30;;;;;;4996938;28;20451;-65
2023/09/16 11:49:26;;;;;;;4.67;4.37;;;26.90;94.00;;;;;;5009040;28;20473;-65
2023/09/16 11:51:53;;;;;;;5.10;4.73;;;26.90;93.60;;;;;;5005618;28;20838;-65
2023/09/16 11:54:20;;;;;;;4.90;4.60;;;27.00;93.20;;;;;;4999760;28;20446;-65
2023/09/16 11:56:49;;;;;;;4.63;4.33;;;27.10;93.20;;;;;;5010717;28;20517;-65
2023/09/16 11:59:15;;;;;;;4.70;4.40;;;27.20;92.90;;;;;;4994184;28;20447;-65
2023/09/16 12:01:43;;;;;;;4.43;4.13;;;27.40;93.00;;;;;;5006865;28;20487;-65
2023/09/16 12:04:15;;;;;;;4.00;3.80;;;27.50;92.90;;;;;;4998327;28;20447;-65
2023/09/16 12:06:42;;;;;;;4.60;4.30;;;27.60;92.30;;;;;;5010524;28;20528;-65
2023/09/16 12:09:14;;;;;;;4.70;4.30;;;27.70;91.70;;;;;;4994912;28;20540;-65
2023/09/16 12:11:41;;;;;;;4.47;4.17;;;27.80;91.50;;;;;;4996919;28;20477;-65
2023/09/16 12:14:11;;;;;;;5.07;4.67;;;27.90;90.80;;;;;;5007162;28;21106;-66
2023/09/16 12:16:38;;;;;;;4.87;4.67;;;28.10;91.50;;;;;;5006832;28;20816;-66
2023/09/16 12:19:05;;;;;;;5.17;4.87;;;28.30;90.30;;;;;;5014667;28;20446;-66
2023/09/16 12:21:34;;;;;;;5.30;5.00;;;28.40;90.60;;;;;;4998146;28;20497;-66
2023/09/16 12:24:00;;;;;;;4.97;4.67;;;28.50;89.80;;;;;;5007811;28;20451;-66
2023/09/16 12:26:28;;;;;;;4.80;4.40;;;28.70;90.30;;;;;;5004488;28;20446;-65
2023/09/16 12:28:55;;;;;;;3.87;3.67;;;28.70;89.00;;;;;;5014619;28;20453;-66
2023/09/16 12:31:24;;;;;;;5.33;4.93;;;28.90;89.70;;;;;;4997988;28;20447;-66
2023/09/16 12:33:54;;;;;;;4.20;4.00;;;29.10;89.20;;;;;;5008907;28;20529;-66
2023/09/16 12:36:24;;;;;;;4.33;4.10;;;29.20;87.60;;;;;;5003821;28;20450;-66
2023/09/16 12:38:53;;;;;;;4.97;4.57;;;29.30;85.50;;;;;;5000837;28;20451;-66
2023/09/16 12:41:21;;;;;;;4.70;4.30;;;29.40;84.30;;;;;;5011150;28;20540;-66
2023/09/16 12:43:49;;;;;;;5.10;4.73;;;29.50;84.70;;;;;;5009298;28;20527;-66
2023/09/16 12:46:20;;;;;;;4.33;4.03;;;29.60;85.90;;;;;;5002919;28;20829;-65
2023/09/16 12:48:50;;;;;;;4.10;3.80;;;29.70;83.10;;;;;;5014045;28;20446;-66
2023/09/16 12:51:19;;;;;;;4.17;3.87;;;29.80;81.60;;;;;;4997475;28;20450;-66